sensor_id;sensor_type;location;lat;lon;timestamp;P1;durP1;ratioP1;P2;durP2;ratioP2
25057;SDS011;13057;50.978;11.034;2023-03-04T00:01:13;14.75;;;8.57;;
25057;SDS011;13057;50.978;11.034;2023-03-04T00:03:40;16.15;;;9.13;;
25057;SDS011;13057;50.978;11.034;2023-03-04T00:06:06;16.38;;;9.45;;
25057;SDS011;13057;50.978;11.034;2023-03-04T00:08:33;14.90;;;9.13;;
25057;SDS011;13057;50.978;11.034;2023-03-04T00:10:59;16.80;;;9.35;;
25057;SDS011;13057;50.978;11.034;2023-03-04T00:13:26;16.75;;;9.82;;
25057;SDS011;13057;50.978;11.034;2023-03-04T00:15:52;15.80;;;9.80;;
25057;SDS011;13057;50.978;11.034;2023-03-04T00:18:18;15.45;;;9.57;;
25057;SDS011;13057;50.978;11.034;2023-03-04T00:20:45;14.95;;;9.23;;
25057;SDS011;13057;50.978;11.034;2023-03-04T00:23:11;17.02;;;9.27;;
25057;SDS011;13057;50.978;11.034;2023-03-04T00:25:37;15.23;;;9.23;;
25057;SDS011;13057;50.978;11.034;2023-03-04T00:28:03;14.85;;;9.07;;
25057;SDS011;13057;50.978;11.034;2023-03-04T00:30:30;16.00;;;9.43;;
25057;SDS011;13057;50.978;11.034;2023-03-04T00:32:56;16.58;;;9.32;;
25057;SDS011;13057;50.978;11.034;2023-03-04T00:35:22;19.75;;;11.45;;
25057;SDS011;13057;50.978;11.034;2023-03-04T00:37:47;18.73;;;10.68;;
25057;SDS011;13057;50.978;11.034;2023-03-04T00:40:13;15.35;;;9.57;;
25057;SDS011;13057;50.978;11.034;2023-03-04T00:42:39;14.48;;;9.40;;
25057;SDS011;13057;50.978;11.034;2023-03-04T00:45:05;15.77;;;9.23;;
25057;SDS011;13057;50.978;11.034;2023-03-04T00:47:32;15.30;;;8.93;;
25057;SDS011;13057;50.978;11.034;2023-03-04T00:49:58;16.08;;;9.32;;
25057;SDS011;13057;50.978;11.034;2023-03-04T00:52:24;16.85;;;9.82;;
25057;SDS011;13057;50.978;11.034;2023-03-04T00:54:49;15.27;;;9.23;;
25057;SDS011;13057;50.978;11.034;2023-03-04T00:57:15;15.73;;;9.55;;
25057;SDS011;13057;50.978;11.034;2023-03-04T00:59:41;18.08;;;9.93;;
25057;SDS011;13057;50.978;11.034;2023-03-04T01:02:08;14.90;;;8.90;;
25057;SDS011;13057;50.978;11.034;2023-03-04T01:04:35;14.85;;;9.27;;
25057;SDS011;13057;50.978;11.034;2023-03-04T01:07:01;17.15;;;9.52;;
25057;SDS011;13057;50.978;11.034;2023-03-04T01:09:27;17.17;;;9.15;;
25057;SDS011;13057;50.978;11.034;2023-03-04T01:11:53;19.52;;;9.70;;
25057;SDS011;13057;50.978;11.034;2023-03-04T01:14:18;16.05;;;9.95;;
25057;SDS011;13057;50.978;11.034;2023-03-04T01:16:44;16.52;;;9.57;;
25057;SDS011;13057;50.978;11.034;2023-03-04T01:19:10;17.48;;;9.52;;
25057;SDS011;13057;50.978;11.034;2023-03-04T01:21:36;17.23;;;9.35;;
25057;SDS011;13057;50.978;11.034;2023-03-04T01:24:02;15.40;;;9.00;;
25057;SDS011;13057;50.978;11.034;2023-03-04T01:26:28;17.33;;;9.27;;
25057;SDS011;13057;50.978;11.034;2023-03-04T01:28:54;18.65;;;10.32;;
25057;SDS011;13057;50.978;11.034;2023-03-04T01:31:20;18.42;;;9.73;;
25057;SDS011;13057;50.978;11.034;2023-03-04T01:33:46;12.32;;;8.18;;
25057;SDS011;13057;50.978;11.034;2023-03-04T01:36:12;14.18;;;8.60;;
25057;SDS011;13057;50.978;11.034;2023-03-04T01:38:37;18.15;;;9.35;;
25057;SDS011;13057;50.978;11.034;2023-03-04T01:41:04;16.25;;;9.25;;
25057;SDS011;13057;50.978;11.034;2023-03-04T01:43:31;17.13;;;9.50;;
25057;SDS011;13057;50.978;11.034;2023-03-04T01:45:59;16.92;;;9.35;;
25057;SDS011;13057;50.978;11.034;2023-03-04T01:48:28;15.73;;;9.35;;
25057;SDS011;13057;50.978;11.034;2023-03-04T01:50:58;17.63;;;9.13;;
25057;SDS011;13057;50.978;11.034;2023-03-04T01:53:27;17.45;;;9.32;;
25057;SDS011;13057;50.978;11.034;2023-03-04T01:55:55;16.83;;;9.32;;
25057;SDS011;13057;50.978;11.034;2023-03-04T01:58:25;16.50;;;9.73;;
25057;SDS011;13057;50.978;11.034;2023-03-04T02:00:54;16.35;;;8.75;;
25057;SDS011;13057;50.978;11.034;2023-03-04T02:03:21;16.23;;;9.05;;
25057;SDS011;13057;50.978;11.034;2023-03-04T02:05:48;15.55;;;8.82;;
25057;SDS011;13057;50.978;11.034;2023-03-04T02:08:16;16.15;;;9.45;;
25057;SDS011;13057;50.978;11.034;2023-03-04T02:10:44;16.30;;;9.13;;
25057;SDS011;13057;50.978;11.034;2023-03-04T02:13:10;12.18;;;8.38;;
25057;SDS011;13057;50.978;11.034;2023-03-04T02:15:37;19.27;;;9.40;;
25057;SDS011;13057;50.978;11.034;2023-03-04T02:18:13;15.60;;;9.60;;
25057;SDS011;13057;50.978;11.034;2023-03-04T02:20:55;18.95;;;9.50;;
25057;SDS011;13057;50.978;11.034;2023-03-04T02:23:41;17.75;;;9.20;;
25057;SDS011;13057;50.978;11.034;2023-03-04T02:26:14;17.98;;;9.02;;
25057;SDS011;13057;50.978;11.034;2023-03-04T02:28:42;17.52;;;9.05;;
25057;SDS011;13057;50.978;11.034;2023-03-04T02:31:14;15.52;;;8.77;;
25057;SDS011;13057;50.978;11.034;2023-03-04T02:33:47;19.35;;;10.18;;
25057;SDS011;13057;50.978;11.034;2023-03-04T02:36:13;18.67;;;9.60;;
25057;SDS011;13057;50.978;11.034;2023-03-04T02:38:39;16.90;;;9.27;;
25057;SDS011;13057;50.978;11.034;2023-03-04T02:41:05;19.23;;;9.90;;
25057;SDS011;13057;50.978;11.034;2023-03-04T02:43:38;15.65;;;9.40;;
25057;SDS011;13057;50.978;11.034;2023-03-04T02:46:04;17.10;;;9.18;;
25057;SDS011;13057;50.978;11.034;2023-03-04T02:48:30;19.05;;;8.93;;
25057;SDS011;13057;50.978;11.034;2023-03-04T02:50:55;18.40;;;9.55;;
25057;SDS011;13057;50.978;11.034;2023-03-04T02:53:22;14.07;;;8.32;;
25057;SDS011;13057;50.978;11.034;2023-03-04T02:55:49;21.80;;;12.25;;
25057;SDS011;13057;50.978;11.034;2023-03-04T02:58:16;14.82;;;8.98;;
25057;SDS011;13057;50.978;11.034;2023-03-04T03:00:41;15.95;;;8.75;;
25057;SDS011;13057;50.978;11.034;2023-03-04T03:03:07;13.15;;;7.95;;
25057;SDS011;13057;50.978;11.034;2023-03-04T03:05:34;16.85;;;8.68;;
25057;SDS011;13057;50.978;11.034;2023-03-04T03:08:01;16.33;;;8.63;;
25057;SDS011;13057;50.978;11.034;2023-03-04T03:10:28;16.15;;;8.27;;
25057;SDS011;13057;50.978;11.034;2023-03-04T03:12:54;15.35;;;8.05;;
25057;SDS011;13057;50.978;11.034;2023-03-04T03:15:20;17.40;;;8.05;;
25057;SDS011;13057;50.978;11.034;2023-03-04T03:17:46;16.00;;;8.05;;
25057;SDS011;13057;50.978;11.034;2023-03-04T03:20:12;15.32;;;7.32;;
25057;SDS011;13057;50.978;11.034;2023-03-04T03:22:39;17.15;;;8.07;;
25057;SDS011;13057;50.978;11.034;2023-03-04T03:25:05;14.73;;;7.90;;
25057;SDS011;13057;50.978;11.034;2023-03-04T03:27:32;14.95;;;7.68;;
25057;SDS011;13057;50.978;11.034;2023-03-04T03:29:58;14.85;;;8.20;;
25057;SDS011;13057;50.978;11.034;2023-03-04T03:32:24;12.57;;;7.85;;
25057;SDS011;13057;50.978;11.034;2023-03-04T03:34:50;13.68;;;8.05;;
25057;SDS011;13057;50.978;11.034;2023-03-04T03:37:16;13.18;;;6.95;;
25057;SDS011;13057;50.978;11.034;2023-03-04T03:39:42;15.50;;;7.35;;
25057;SDS011;13057;50.978;11.034;2023-03-04T03:42:08;14.95;;;6.88;;
25057;SDS011;13057;50.978;11.034;2023-03-04T03:44:34;17.38;;;7.82;;
25057;SDS011;13057;50.978;11.034;2023-03-04T03:47:00;16.73;;;6.25;;
25057;SDS011;13057;50.978;11.034;2023-03-04T03:49:26;13.07;;;6.78;;
25057;SDS011;13057;50.978;11.034;2023-03-04T03:51:52;18.15;;;6.80;;
25057;SDS011;13057;50.978;11.034;2023-03-04T03:54:18;13.23;;;5.95;;
25057;SDS011;13057;50.978;11.034;2023-03-04T03:56:44;17.00;;;6.55;;
25057;SDS011;13057;50.978;11.034;2023-03-04T03:59:10;16.38;;;6.75;;
25057;SDS011;13057;50.978;11.034;2023-03-04T04:01:36;14.73;;;6.32;;
25057;SDS011;13057;50.978;11.034;2023-03-04T04:04:02;10.18;;;5.30;;
25057;SDS011;13057;50.978;11.034;2023-03-04T04:06:28;17.30;;;6.10;;
25057;SDS011;13057;50.978;11.034;2023-03-04T04:08:54;13.20;;;5.95;;
25057;SDS011;13057;50.978;11.034;2023-03-04T04:11:20;13.95;;;6.05;;
25057;SDS011;13057;50.978;11.034;2023-03-04T04:13:46;15.65;;;6.28;;
25057;SDS011;13057;50.978;11.034;2023-03-04T04:16:12;17.33;;;5.82;;
25057;SDS011;13057;50.978;11.034;2023-03-04T04:18:38;14.25;;;6.05;;
25057;SDS011;13057;50.978;11.034;2023-03-04T04:21:04;15.30;;;6.38;;
25057;SDS011;13057;50.978;11.034;2023-03-04T04:23:30;16.73;;;6.43;;
25057;SDS011;13057;50.978;11.034;2023-03-04T04:25:56;19.23;;;6.65;;
25057;SDS011;13057;50.978;11.034;2023-03-04T04:28:22;16.50;;;6.43;;
25057;SDS011;13057;50.978;11.034;2023-03-04T04:30:49;16.13;;;6.93;;
25057;SDS011;13057;50.978;11.034;2023-03-04T04:33:15;14.68;;;6.15;;
25057;SDS011;13057;50.978;11.034;2023-03-04T04:35:41;13.73;;;6.18;;
25057;SDS011;13057;50.978;11.034;2023-03-04T04:38:08;13.20;;;5.82;;
25057;SDS011;13057;50.978;11.034;2023-03-04T04:40:34;16.15;;;5.63;;
25057;SDS011;13057;50.978;11.034;2023-03-04T04:43:01;16.40;;;5.80;;
25057;SDS011;13057;50.978;11.034;2023-03-04T04:45:27;17.48;;;5.95;;
25057;SDS011;13057;50.978;11.034;2023-03-04T04:47:53;14.88;;;5.63;;
25057;SDS011;13057;50.978;11.034;2023-03-04T04:50:23;17.73;;;5.28;;
25057;SDS011;13057;50.978;11.034;2023-03-04T04:52:49;13.57;;;5.07;;
25057;SDS011;13057;50.978;11.034;2023-03-04T04:55:15;13.20;;;5.72;;
25057;SDS011;13057;50.978;11.034;2023-03-04T04:57:41;12.95;;;5.18;;
25057;SDS011;13057;50.978;11.034;2023-03-04T05:00:07;10.85;;;4.85;;
25057;SDS011;13057;50.978;11.034;2023-03-04T05:02:34;19.73;;;5.82;;
25057;SDS011;13057;50.978;11.034;2023-03-04T05:05:03;17.88;;;5.50;;
25057;SDS011;13057;50.978;11.034;2023-03-04T05:07:29;13.43;;;5.20;;
25057;SDS011;13057;50.978;11.034;2023-03-04T05:09:55;17.17;;;5.18;;
25057;SDS011;13057;50.978;11.034;2023-03-04T05:12:21;14.13;;;4.75;;
25057;SDS011;13057;50.978;11.034;2023-03-04T05:14:47;12.80;;;5.35;;
25057;SDS011;13057;50.978;11.034;2023-03-04T05:17:13;88.28;;;13.38;;
25057;SDS011;13057;50.978;11.034;2023-03-04T05:19:39;14.95;;;5.40;;
25057;SDS011;13057;50.978;11.034;2023-03-04T05:22:05;17.00;;;5.38;;
25057;SDS011;13057;50.978;11.034;2023-03-04T05:24:31;17.02;;;5.50;;
25057;SDS011;13057;50.978;11.034;2023-03-04T05:26:58;10.15;;;4.68;;
25057;SDS011;13057;50.978;11.034;2023-03-04T05:29:25;16.77;;;5.00;;
25057;SDS011;13057;50.978;11.034;2023-03-04T05:31:51;16.40;;;5.15;;
25057;SDS011;13057;50.978;11.034;2023-03-04T05:34:17;12.43;;;4.18;;
25057;SDS011;13057;50.978;11.034;2023-03-04T05:36:43;17.25;;;4.75;;
25057;SDS011;13057;50.978;11.034;2023-03-04T05:39:09;16.10;;;4.68;;
25057;SDS011;13057;50.978;11.034;2023-03-04T05:41:35;17.02;;;4.25;;
25057;SDS011;13057;50.978;11.034;2023-03-04T05:44:00;15.98;;;4.32;;
25057;SDS011;13057;50.978;11.034;2023-03-04T05:46:26;11.95;;;4.20;;
25057;SDS011;13057;50.978;11.034;2023-03-04T05:48:53;14.13;;;4.88;;
25057;SDS011;13057;50.978;11.034;2023-03-04T05:51:19;15.80;;;4.32;;
25057;SDS011;13057;50.978;11.034;2023-03-04T05:53:46;18.23;;;4.72;;
25057;SDS011;13057;50.978;11.034;2023-03-04T05:56:13;10.45;;;4.57;;
25057;SDS011;13057;50.978;11.034;2023-03-04T05:58:41;19.73;;;4.57;;
25057;SDS011;13057;50.978;11.034;2023-03-04T06:01:07;17.52;;;4.63;;
25057;SDS011;13057;50.978;11.034;2023-03-04T06:03:34;11.48;;;4.28;;
25057;SDS011;13057;50.978;11.034;2023-03-04T06:06:00;12.15;;;3.97;;
25057;SDS011;13057;50.978;11.034;2023-03-04T06:08:26;10.57;;;3.90;;
25057;SDS011;13057;50.978;11.034;2023-03-04T06:10:52;9.90;;;3.75;;
25057;SDS011;13057;50.978;11.034;2023-03-04T06:13:20;11.65;;;4.13;;
25057;SDS011;13057;50.978;11.034;2023-03-04T06:15:46;9.15;;;3.80;;
25057;SDS011;13057;50.978;11.034;2023-03-04T06:18:17;14.75;;;3.90;;
25057;SDS011;13057;50.978;11.034;2023-03-04T06:20:43;12.27;;;3.80;;
25057;SDS011;13057;50.978;11.034;2023-03-04T06:23:09;11.73;;;3.90;;
25057;SDS011;13057;50.978;11.034;2023-03-04T06:25:35;8.38;;;3.63;;
25057;SDS011;13057;50.978;11.034;2023-03-04T06:28:01;8.55;;;3.90;;
25057;SDS011;13057;50.978;11.034;2023-03-04T06:30:27;16.38;;;4.38;;
25057;SDS011;13057;50.978;11.034;2023-03-04T06:32:53;13.07;;;4.05;;
25057;SDS011;13057;50.978;11.034;2023-03-04T06:35:19;10.43;;;3.88;;
25057;SDS011;13057;50.978;11.034;2023-03-04T06:37:44;11.15;;;3.72;;
25057;SDS011;13057;50.978;11.034;2023-03-04T06:40:11;10.10;;;3.80;;
25057;SDS011;13057;50.978;11.034;2023-03-04T06:42:37;10.90;;;3.50;;
25057;SDS011;13057;50.978;11.034;2023-03-04T06:45:04;17.17;;;3.92;;
25057;SDS011;13057;50.978;11.034;2023-03-04T06:47:30;10.48;;;3.67;;
25057;SDS011;13057;50.978;11.034;2023-03-04T06:49:57;14.18;;;4.03;;
25057;SDS011;13057;50.978;11.034;2023-03-04T06:52:22;13.45;;;3.95;;
25057;SDS011;13057;50.978;11.034;2023-03-04T06:54:48;26.42;;;4.60;;
25057;SDS011;13057;50.978;11.034;2023-03-04T06:57:14;51.08;;;7.22;;
25057;SDS011;13057;50.978;11.034;2023-03-04T06:59:40;14.38;;;3.80;;
25057;SDS011;13057;50.978;11.034;2023-03-04T07:02:08;12.77;;;3.17;;
25057;SDS011;13057;50.978;11.034;2023-03-04T07:04:36;12.07;;;3.25;;
25057;SDS011;13057;50.978;11.034;2023-03-04T07:07:09;14.13;;;3.17;;
25057;SDS011;13057;50.978;11.034;2023-03-04T07:09:35;15.02;;;3.70;;
25057;SDS011;13057;50.978;11.034;2023-03-04T07:12:01;8.82;;;2.92;;
25057;SDS011;13057;50.978;11.034;2023-03-04T07:14:28;12.75;;;3.45;;
25057;SDS011;13057;50.978;11.034;2023-03-04T07:16:53;13.77;;;3.28;;
25057;SDS011;13057;50.978;11.034;2023-03-04T07:19:19;10.30;;;3.92;;
25057;SDS011;13057;50.978;11.034;2023-03-04T07:21:45;12.30;;;3.70;;
25057;SDS011;13057;50.978;11.034;2023-03-04T07:24:11;12.05;;;3.80;;
25057;SDS011;13057;50.978;11.034;2023-03-04T07:26:37;13.35;;;3.70;;
25057;SDS011;13057;50.978;11.034;2023-03-04T07:29:03;20.60;;;3.90;;
25057;SDS011;13057;50.978;11.034;2023-03-04T07:31:31;12.13;;;3.47;;
25057;SDS011;13057;50.978;11.034;2023-03-04T07:33:59;13.10;;;3.40;;
25057;SDS011;13057;50.978;11.034;2023-03-04T07:36:26;15.20;;;4.00;;
25057;SDS011;13057;50.978;11.034;2023-03-04T07:38:53;14.85;;;4.32;;
25057;SDS011;13057;50.978;11.034;2023-03-04T07:41:19;10.63;;;3.47;;
25057;SDS011;13057;50.978;11.034;2023-03-04T07:43:46;13.30;;;3.78;;
25057;SDS011;13057;50.978;11.034;2023-03-04T07:46:12;12.48;;;3.40;;
25057;SDS011;13057;50.978;11.034;2023-03-04T07:48:38;8.80;;;3.70;;
25057;SDS011;13057;50.978;11.034;2023-03-04T07:51:09;9.55;;;3.20;;
25057;SDS011;13057;50.978;11.034;2023-03-04T07:53:37;13.32;;;3.15;;
25057;SDS011;13057;50.978;11.034;2023-03-04T07:56:04;9.35;;;3.78;;
25057;SDS011;13057;50.978;11.034;2023-03-04T07:58:31;13.65;;;3.90;;
25057;SDS011;13057;50.978;11.034;2023-03-04T08:00:58;8.75;;;3.35;;
25057;SDS011;13057;50.978;11.034;2023-03-04T08:03:23;10.20;;;2.42;;
25057;SDS011;13057;50.978;11.034;2023-03-04T08:05:50;9.52;;;2.88;;
25057;SDS011;13057;50.978;11.034;2023-03-04T08:08:16;11.20;;;2.40;;
25057;SDS011;13057;50.978;11.034;2023-03-04T08:10:42;10.98;;;2.92;;
25057;SDS011;13057;50.978;11.034;2023-03-04T08:13:09;8.75;;;2.55;;
25057;SDS011;13057;50.978;11.034;2023-03-04T08:15:38;6.80;;;1.98;;
25057;SDS011;13057;50.978;11.034;2023-03-04T08:18:06;7.90;;;2.42;;
25057;SDS011;13057;50.978;11.034;2023-03-04T08:20:32;8.18;;;2.20;;
25057;SDS011;13057;50.978;11.034;2023-03-04T08:22:58;8.98;;;2.13;;
25057;SDS011;13057;50.978;11.034;2023-03-04T08:25:24;6.68;;;1.40;;
25057;SDS011;13057;50.978;11.034;2023-03-04T08:27:49;6.80;;;1.77;;
25057;SDS011;13057;50.978;11.034;2023-03-04T08:30:18;9.70;;;2.05;;
25057;SDS011;13057;50.978;11.034;2023-03-04T08:32:44;6.63;;;2.00;;
25057;SDS011;13057;50.978;11.034;2023-03-04T08:35:10;5.03;;;1.70;;
25057;SDS011;13057;50.978;11.034;2023-03-04T08:37:36;4.82;;;1.40;;
25057;SDS011;13057;50.978;11.034;2023-03-04T08:40:02;7.15;;;1.25;;
25057;SDS011;13057;50.978;11.034;2023-03-04T08:42:28;6.00;;;1.73;;
25057;SDS011;13057;50.978;11.034;2023-03-04T08:44:54;7.38;;;1.80;;
25057;SDS011;13057;50.978;11.034;2023-03-04T08:47:20;10.77;;;1.98;;
25057;SDS011;13057;50.978;11.034;2023-03-04T08:49:46;5.72;;;1.50;;
25057;SDS011;13057;50.978;11.034;2023-03-04T08:52:11;7.20;;;1.58;;
25057;SDS011;13057;50.978;11.034;2023-03-04T08:54:37;4.50;;;1.58;;
25057;SDS011;13057;50.978;11.034;2023-03-04T08:57:03;5.65;;;1.42;;
25057;SDS011;13057;50.978;11.034;2023-03-04T08:59:32;6.07;;;2.13;;
25057;SDS011;13057;50.978;11.034;2023-03-04T09:01:57;4.95;;;1.65;;
25057;SDS011;13057;50.978;11.034;2023-03-04T09:04:23;7.93;;;1.80;;
25057;SDS011;13057;50.978;11.034;2023-03-04T09:06:49;6.50;;;1.73;;
25057;SDS011;13057;50.978;11.034;2023-03-04T09:09:15;9.63;;;1.88;;
25057;SDS011;13057;50.978;11.034;2023-03-04T09:11:41;7.72;;;2.60;;
25057;SDS011;13057;50.978;11.034;2023-03-04T09:14:07;4.43;;;1.98;;
25057;SDS011;13057;50.978;11.034;2023-03-04T09:16:33;6.47;;;1.73;;
25057;SDS011;13057;50.978;11.034;2023-03-04T09:18:59;6.25;;;1.73;;
25057;SDS011;13057;50.978;11.034;2023-03-04T09:21:25;4.20;;;1.55;;
25057;SDS011;13057;50.978;11.034;2023-03-04T09:23:51;5.95;;;1.67;;
25057;SDS011;13057;50.978;11.034;2023-03-04T09:26:19;4.28;;;1.60;;
25057;SDS011;13057;50.978;11.034;2023-03-04T09:28:48;5.22;;;1.60;;
25057;SDS011;13057;50.978;11.034;2023-03-04T09:31:16;3.80;;;1.60;;
25057;SDS011;13057;50.978;11.034;2023-03-04T09:33:41;6.47;;;1.58;;
25057;SDS011;13057;50.978;11.034;2023-03-04T09:36:08;4.90;;;1.50;;
25057;SDS011;13057;50.978;11.034;2023-03-04T09:38:36;6.63;;;2.13;;
25057;SDS011;13057;50.978;11.034;2023-03-04T09:41:03;4.90;;;1.83;;
25057;SDS011;13057;50.978;11.034;2023-03-04T09:43:33;7.35;;;1.50;;
25057;SDS011;13057;50.978;11.034;2023-03-04T09:46:00;4.32;;;1.83;;
25057;SDS011;13057;50.978;11.034;2023-03-04T09:48:31;2.95;;;1.20;;
25057;SDS011;13057;50.978;11.034;2023-03-04T09:51:18;3.63;;;1.35;;
25057;SDS011;13057;50.978;11.034;2023-03-04T09:53:53;9.15;;;1.30;;
25057;SDS011;13057;50.978;11.034;2023-03-04T09:56:32;2.17;;;1.20;;
25057;SDS011;13057;50.978;11.034;2023-03-04T09:59:08;5.13;;;1.55;;
25057;SDS011;13057;50.978;11.034;2023-03-04T10:01:47;4.88;;;1.20;;
25057;SDS011;13057;50.978;11.034;2023-03-04T10:04:21;2.28;;;1.20;;
25057;SDS011;13057;50.978;11.034;2023-03-04T10:07:01;3.20;;;1.25;;
25057;SDS011;13057;50.978;11.034;2023-03-04T10:09:29;1.92;;;1.13;;
25057;SDS011;13057;50.978;11.034;2023-03-04T10:12:08;2.50;;;1.10;;
25057;SDS011;13057;50.978;11.034;2023-03-04T10:17:23;2.63;;;1.00;;
25057;SDS011;13057;50.978;11.034;2023-03-04T10:20:09;1.95;;;1.08;;
25057;SDS011;13057;50.978;11.034;2023-03-04T10:22:46;2.28;;;1.40;;
25057;SDS011;13057;50.978;11.034;2023-03-04T10:25:16;2.72;;;1.38;;
25057;SDS011;13057;50.978;11.034;2023-03-04T10:27:48;6.18;;;1.08;;
25057;SDS011;13057;50.978;11.034;2023-03-04T10:30:29;2.60;;;0.95;;
25057;SDS011;13057;50.978;11.034;2023-03-04T10:33:13;5.88;;;1.23;;
25057;SDS011;13057;50.978;11.034;2023-03-04T10:35:42;7.00;;;1.40;;
25057;SDS011;13057;50.978;11.034;2023-03-04T10:38:12;3.92;;;1.27;;
25057;SDS011;13057;50.978;11.034;2023-03-04T10:40:39;3.40;;;0.93;;
25057;SDS011;13057;50.978;11.034;2023-03-04T10:43:17;3.60;;;1.30;;
25057;SDS011;13057;50.978;11.034;2023-03-04T10:45:44;1.83;;;1.20;;
25057;SDS011;13057;50.978;11.034;2023-03-04T10:48:18;2.78;;;1.17;;
25057;SDS011;13057;50.978;11.034;2023-03-04T10:50:47;4.43;;;1.20;;
25057;SDS011;13057;50.978;11.034;2023-03-04T10:53:23;4.75;;;1.70;;
25057;SDS011;13057;50.978;11.034;2023-03-04T10:56:00;4.03;;;1.30;;
25057;SDS011;13057;50.978;11.034;2023-03-04T10:58:27;2.25;;;1.10;;
25057;SDS011;13057;50.978;11.034;2023-03-04T11:00:59;3.10;;;1.30;;
25057;SDS011;13057;50.978;11.034;2023-03-04T11:03:31;2.85;;;1.40;;
25057;SDS011;13057;50.978;11.034;2023-03-04T11:06:10;5.85;;;1.90;;
25057;SDS011;13057;50.978;11.034;2023-03-04T11:08:42;2.17;;;1.05;;
25057;SDS011;13057;50.978;11.034;2023-03-04T11:11:21;3.22;;;1.38;;
25057;SDS011;13057;50.978;11.034;2023-03-04T11:13:53;2.35;;;1.13;;
25057;SDS011;13057;50.978;11.034;2023-03-04T11:16:23;1.80;;;0.90;;
25057;SDS011;13057;50.978;11.034;2023-03-04T11:18:58;4.55;;;1.20;;
25057;SDS011;13057;50.978;11.034;2023-03-04T11:21:30;3.10;;;1.40;;
25057;SDS011;13057;50.978;11.034;2023-03-04T11:29:06;2.30;;;1.30;;
25057;SDS011;13057;50.978;11.034;2023-03-04T11:31:45;2.58;;;1.05;;
25057;SDS011;13057;50.978;11.034;2023-03-04T11:34:23;5.72;;;1.38;;
25057;SDS011;13057;50.978;11.034;2023-03-04T11:37:15;1.80;;;0.98;;
25057;SDS011;13057;50.978;11.034;2023-03-04T11:39:53;2.65;;;1.30;;
25057;SDS011;13057;50.978;11.034;2023-03-04T11:42:39;2.40;;;1.30;;
25057;SDS011;13057;50.978;11.034;2023-03-04T11:45:26;2.83;;;1.40;;
25057;SDS011;13057;50.978;11.034;2023-03-04T11:48:08;5.05;;;1.40;;
25057;SDS011;13057;50.978;11.034;2023-03-04T11:50:43;4.07;;;1.88;;
25057;SDS011;13057;50.978;11.034;2023-03-04T11:56:12;7.60;;;1.75;;
25057;SDS011;13057;50.978;11.034;2023-03-04T11:58:57;3.95;;;1.50;;
25057;SDS011;13057;50.978;11.034;2023-03-04T12:01:42;3.05;;;1.40;;
25057;SDS011;13057;50.978;11.034;2023-03-04T12:04:27;3.92;;;1.60;;
25057;SDS011;13057;50.978;11.034;2023-03-04T12:07:07;3.65;;;1.38;;
25057;SDS011;13057;50.978;11.034;2023-03-04T12:09:56;6.43;;;1.27;;
25057;SDS011;13057;50.978;11.034;2023-03-04T12:12:50;5.40;;;1.70;;
25057;SDS011;13057;50.978;11.034;2023-03-04T12:15:46;4.00;;;1.67;;
25057;SDS011;13057;50.978;11.034;2023-03-04T12:18:27;5.03;;;1.40;;
25057;SDS011;13057;50.978;11.034;2023-03-04T12:24:11;4.80;;;1.48;;
25057;SDS011;13057;50.978;11.034;2023-03-04T12:26:48;3.97;;;1.63;;
25057;SDS011;13057;50.978;11.034;2023-03-04T12:29:33;2.95;;;1.30;;
25057;SDS011;13057;50.978;11.034;2023-03-04T12:32:16;2.25;;;1.30;;
25057;SDS011;13057;50.978;11.034;2023-03-04T12:34:54;2.45;;;1.17;;
25057;SDS011;13057;50.978;11.034;2023-03-04T12:37:45;3.75;;;1.40;;
25057;SDS011;13057;50.978;11.034;2023-03-04T12:40:24;5.28;;;1.90;;
25057;SDS011;13057;50.978;11.034;2023-03-04T12:43:01;5.05;;;1.13;;
25057;SDS011;13057;50.978;11.034;2023-03-04T12:45:38;2.28;;;1.27;;
25057;SDS011;13057;50.978;11.034;2023-03-04T12:48:21;4.13;;;1.80;;
25057;SDS011;13057;50.978;11.034;2023-03-04T12:51:01;2.20;;;1.13;;
25057;SDS011;13057;50.978;11.034;2023-03-04T12:53:53;4.38;;;1.80;;
25057;SDS011;13057;50.978;11.034;2023-03-04T12:56:36;2.20;;;1.30;;
25057;SDS011;13057;50.978;11.034;2023-03-04T12:59:13;3.95;;;1.58;;
25057;SDS011;13057;50.978;11.034;2023-03-04T13:01:45;4.10;;;1.48;;
25057;SDS011;13057;50.978;11.034;2023-03-04T13:04:22;4.30;;;1.60;;
25057;SDS011;13057;50.978;11.034;2023-03-04T13:07:07;3.13;;;1.67;;
25057;SDS011;13057;50.978;11.034;2023-03-04T13:09:46;4.47;;;1.90;;
25057;SDS011;13057;50.978;11.034;2023-03-04T13:12:20;4.07;;;1.38;;
25057;SDS011;13057;50.978;11.034;2023-03-04T13:15:45;3.58;;;1.70;;
25057;SDS011;13057;50.978;11.034;2023-03-04T13:17:43;2.17;;;1.45;;
25057;SDS011;13057;50.978;11.034;2023-03-04T13:20:21;2.93;;;1.30;;
25057;SDS011;13057;50.978;11.034;2023-03-04T13:23:02;1.52;;;1.25;;
25057;SDS011;13057;50.978;11.034;2023-03-04T13:25:45;2.58;;;1.45;;
25057;SDS011;13057;50.978;11.034;2023-03-04T13:28:15;2.45;;;1.20;;
25057;SDS011;13057;50.978;11.034;2023-03-04T13:33:43;1.90;;;1.10;;
25057;SDS011;13057;50.978;11.034;2023-03-04T13:38:56;12.27;;;7.53;;
25057;SDS011;13057;50.978;11.034;2023-03-04T13:41:28;2.45;;;1.20;;
25057;SDS011;13057;50.978;11.034;2023-03-04T13:46:28;3.78;;;1.75;;
25057;SDS011;13057;50.978;11.034;2023-03-04T13:49:00;2.28;;;1.08;;
25057;SDS011;13057;50.978;11.034;2023-03-04T13:51:30;2.97;;;1.05;;
25057;SDS011;13057;50.978;11.034;2023-03-04T13:59:12;2.47;;;1.10;;
25057;SDS011;13057;50.978;11.034;2023-03-04T14:01:54;2.78;;;1.30;;
25057;SDS011;13057;50.978;11.034;2023-03-04T14:04:29;2.72;;;1.50;;
25057;SDS011;13057;50.978;11.034;2023-03-04T14:06:58;2.92;;;1.67;;
25057;SDS011;13057;50.978;11.034;2023-03-04T14:09:27;4.10;;;1.65;;
25057;SDS011;13057;50.978;11.034;2023-03-04T14:11:56;3.65;;;1.80;;
25057;SDS011;13057;50.978;11.034;2023-03-04T14:14:28;2.87;;;1.40;;
25057;SDS011;13057;50.978;11.034;2023-03-04T14:17:04;4.55;;;2.22;;
25057;SDS011;13057;50.978;11.034;2023-03-04T14:19:32;2.53;;;1.13;;
25057;SDS011;13057;50.978;11.034;2023-03-04T14:22:18;4.20;;;1.20;;
25057;SDS011;13057;50.978;11.034;2023-03-04T14:24:55;2.30;;;1.30;;
25057;SDS011;13057;50.978;11.034;2023-03-04T14:27:23;2.83;;;1.23;;
25057;SDS011;13057;50.978;11.034;2023-03-04T14:29:57;5.63;;;1.48;;
25057;SDS011;13057;50.978;11.034;2023-03-04T14:32:24;2.00;;;1.30;;
25057;SDS011;13057;50.978;11.034;2023-03-04T14:34:50;2.60;;;1.33;;
25057;SDS011;13057;50.978;11.034;2023-03-04T14:37:22;2.72;;;1.20;;
25057;SDS011;13057;50.978;11.034;2023-03-04T14:39:52;2.67;;;1.75;;
25057;SDS011;13057;50.978;11.034;2023-03-04T14:42:22;9.57;;;3.78;;
25057;SDS011;13057;50.978;11.034;2023-03-04T14:44:55;2.58;;;1.35;;
25057;SDS011;13057;50.978;11.034;2023-03-04T14:47:32;2.60;;;1.50;;
25057;SDS011;13057;50.978;11.034;2023-03-04T14:50:04;3.05;;;1.80;;
25057;SDS011;13057;50.978;11.034;2023-03-04T14:52:33;5.45;;;1.75;;
25057;SDS011;13057;50.978;11.034;2023-03-04T14:55:21;1.88;;;1.13;;
25057;SDS011;13057;50.978;11.034;2023-03-04T14:57:53;2.40;;;1.17;;
25057;SDS011;13057;50.978;11.034;2023-03-04T15:00:36;2.47;;;1.35;;
25057;SDS011;13057;50.978;11.034;2023-03-04T15:03:18;2.42;;;1.27;;
25057;SDS011;13057;50.978;11.034;2023-03-04T15:05:48;4.05;;;1.63;;
25057;SDS011;13057;50.978;11.034;2023-03-04T15:08:21;3.17;;;1.48;;
25057;SDS011;13057;50.978;11.034;2023-03-04T15:10:56;2.08;;;1.30;;